| Date | Time | Temp. (oF) | Dew Point (oF) | Rel. Hum. (%) | Press. (in.) | Wind Dir. | Wind Speed (mph) | Hourly Rainfall (in.) |
|
|---|---|---|---|---|---|---|---|---|---|
| 1 | 08/31 | 00:00 | 61 | 59 | 94 | 30.34 | W | 0 | 0.00 |
| 2 | 08/30 | 23:00 | 63 | 60 | 92 | 30.33 | W | 0 | 0.00 |
| 3 | 08/30 | 22:00 | 64 | 61 | 90 | 30.32 | W | 1 | 0.00 |
| 4 | 08/30 | 21:00 | 66 | 60 | 83 | 30.31 | WSW | 0 | 0.00 |
| 5 | 08/30 | 20:00 | 69 | 61 | 77 | 30.30 | N | 1 | 0.00 |
| 6 | 08/30 | 19:00 | 70 | 60 | 73 | 30.29 | N | 3 | 0.00 |
| 7 | 08/30 | 18:00 | 70 | 59 | 70 | 30.29 | NNW | 1 | 0.00 |
| 8 | 08/30 | 17:00 | 70 | 60 | 71 | 30.28 | NNW | 5 | 0.00 |
| 9 | 08/30 | 16:00 | 69 | 59 | 73 | 30.28 | NW | 4 | 0.00 |
| 10 | 08/30 | 15:00 | 68 | 59 | 74 | 30.27 | N | 7 | 0.00 |
| 11 | 08/30 | 14:00 | 68 | 59 | 74 | 30.29 | N | 3 | 0.00 |
| 12 | 08/30 | 13:00 | 66 | 58 | 78 | 30.28 | N | 5 | 0.00 |
| 13 | 08/30 | 12:00 | 65 | 58 | 79 | 30.29 | W | 2 | 0.00 |
| 14 | 08/30 | 11:00 | 65 | 59 | 82 | 30.28 | N | 4 | 0.00 |
| 15 | 08/30 | 10:00 | 64 | 58 | 83 | 30.27 | N | 6 | 0.00 |
| 16 | 08/30 | 09:00 | 63 | 58 | 85 | 30.27 | NNW | 6 | 0.00 |
| 17 | 08/30 | 08:00 | 63 | 59 | 87 | 30.25 | N | 4 | 0.00 |
| 18 | 08/30 | 07:00 | 63 | 60 | 91 | 30.23 | NNW | 4 | 0.00 |
| 19 | 08/30 | 06:00 | 63 | 60 | 92 | 30.21 | NNW | 3 | 0.00 |
| 20 | 08/30 | 05:00 | 63 | 60 | 92 | 30.20 | NW | 4 | 0.00 |
| 21 | 08/30 | 04:00 | 63 | 60 | 91 | 30.19 | WNW | 2 | 0.00 |
| 22 | 08/30 | 03:00 | 64 | 61 | 91 | 30.18 | NW | 3 | 0.00 |
| 23 | 08/30 | 02:00 | 64 | 61 | 90 | 30.18 | W | 1 | 0.00 |
| 24 | 08/30 | 01:00 | 64 | 61 | 90 | 30.18 | NW | 2 | 0.00 |